createdAt,value
2022-08-27T00:00:26.766Z,99.48
2022-08-27T00:01:28.249Z,99.33
2022-08-27T00:02:26.827Z,99.52
2022-08-27T00:03:26.737Z,99.52
2022-08-27T00:04:26.793Z,99.63
2022-08-27T00:05:27.387Z,99.48
2022-08-27T00:06:26.726Z,99.33
2022-08-27T00:07:26.742Z,99.63
2022-08-27T00:08:26.678Z,99.52
2022-08-27T00:09:27.333Z,99.73
2022-08-27T00:10:26.659Z,99.52
2022-08-27T00:11:26.843Z,99.63
2022-08-27T00:12:36.620Z,99.52
2022-08-27T00:13:26.620Z,99.73
2022-08-27T00:14:26.613Z,99.63
2022-08-27T00:15:27.389Z,99.83
2022-08-27T00:16:28.596Z,99.73
2022-08-27T00:17:26.578Z,99.52
2022-08-27T00:18:26.568Z,99.73
2022-08-27T00:19:26.558Z,99.63
2022-08-27T00:20:26.566Z,99.99
2022-08-27T00:21:26.539Z,99.99
2022-08-27T00:22:26.523Z,99.73
2022-08-27T00:23:26.511Z,99.99
2022-08-27T00:24:26.500Z,99.38
2022-08-27T00:25:26.491Z,99.93
2022-08-27T00:26:26.497Z,99.93
2022-08-27T00:27:26.466Z,99.83
2022-08-27T00:28:26.490Z,99.33
2022-08-27T00:29:26.446Z,99.93
2022-08-27T00:30:26.499Z,99.73
2022-08-27T00:31:27.544Z,99.52
2022-08-27T00:32:26.414Z,99.58
2022-08-27T00:33:26.408Z,99.58
2022-08-27T00:34:26.389Z,99.52
2022-08-27T00:35:26.385Z,99.52
2022-08-27T00:36:26.369Z,99.73
2022-08-27T00:37:26.376Z,99.22
2022-08-27T00:38:26.359Z,99.22
2022-08-27T00:39:26.389Z,99.52
2022-08-27T00:40:26.392Z,99.52
2022-08-27T00:41:35.789Z,99.63
2022-08-27T00:42:26.302Z,99.63
2022-08-27T00:43:26.291Z,99.63
2022-08-27T00:44:26.285Z,99.99
2022-08-27T00:45:26.374Z,99.99
2022-08-27T00:46:26.256Z,99.99
2022-08-27T00:47:26.393Z,99.99
2022-08-27T00:48:26.233Z,99.99
2022-08-27T00:49:26.249Z,99.99
2022-08-27T00:50:26.211Z,99.99
2022-08-27T00:51:26.202Z,99.99
2022-08-27T00:52:26.213Z,99.99
2022-08-27T00:53:26.179Z,99.99
2022-08-27T00:54:26.186Z,99.99
2022-08-27T00:55:26.162Z,99.99
2022-08-27T00:56:26.898Z,99.99
2022-08-27T00:57:26.133Z,99.99
2022-08-27T00:58:26.142Z,99.99
2022-08-27T00:59:26.114Z,99.99
2022-08-27T01:00:26.125Z,99.99
2022-08-27T01:01:26.111Z,99.99
2022-08-27T01:02:26.205Z,99.99
2022-08-27T01:03:26.091Z,99.99
2022-08-27T01:04:26.057Z,99.99
2022-08-27T01:05:26.044Z,99.99
2022-08-27T01:06:26.034Z,99.99
2022-08-27T01:08:50.407Z,99.99
2022-08-27T01:09:50.193Z,99.99
2022-08-27T01:10:50.144Z,99.99
2022-08-27T01:11:50.133Z,99.99
2022-08-27T01:12:53.350Z,99.99
2022-08-27T01:13:59.747Z,99.99
2022-08-27T01:14:51.107Z,99.99
2022-08-27T01:15:50.092Z,99.99
2022-08-27T01:16:50.079Z,99.99
2022-08-27T01:17:50.068Z,99.99
2022-08-27T01:18:52.749Z,99.99
2022-08-27T01:19:50.047Z,99.99
2022-08-27T01:20:50.036Z,99.99
2022-08-27T01:21:50.030Z,99.99
2022-08-27T01:22:50.016Z,99.99
2022-08-27T01:23:50.029Z,99.99
2022-08-27T01:24:49.991Z,99.99
2022-08-27T01:25:50.233Z,99.99
2022-08-27T01:26:49.966Z,99.99
2022-08-27T01:27:49.957Z,99.99
2022-08-27T01:28:52.933Z,99.99
2022-08-27T01:29:50.267Z,99.99
2022-08-27T01:30:49.927Z,99.99
2022-08-27T01:31:49.957Z,99.99
2022-08-27T01:32:49.906Z,99.99
2022-08-27T01:33:49.914Z,99.99
2022-08-27T01:34:49.877Z,99.99
2022-08-27T01:35:49.871Z,99.99
2022-08-27T01:36:49.896Z,99.99
2022-08-27T01:37:49.852Z,99.99
2022-08-27T01:38:49.832Z,99.99
2022-08-27T01:39:49.872Z,99.99
2022-08-27T01:40:49.953Z,99.99
2022-08-27T01:41:49.806Z,99.99
2022-08-27T01:42:49.813Z,99.99
2022-08-27T01:43:49.784Z,99.99
2022-08-27T01:44:49.784Z,99.99
2022-08-27T01:45:49.762Z,99.99
2022-08-27T01:46:49.812Z,99.99
2022-08-27T01:47:51.921Z,99.99
2022-08-27T01:48:49.746Z,99.99
2022-08-27T01:49:49.716Z,99.99
2022-08-27T01:50:49.701Z,99.99
2022-08-27T01:51:49.693Z,99.99
2022-08-27T01:52:49.702Z,99.99
2022-08-27T01:53:49.680Z,99.99
2022-08-27T01:54:49.655Z,99.99
2022-08-27T01:55:49.647Z,99.99
2022-08-27T01:56:49.635Z,99.99
2022-08-27T01:57:49.661Z,99.99
2022-08-27T01:58:49.616Z,99.99
2022-08-27T01:59:49.603Z,99.99
2022-08-27T02:00:56.011Z,99.99
2022-08-27T02:01:50.615Z,99.99
2022-08-27T02:02:49.586Z,99.99
2022-08-27T02:03:50.723Z,99.99
2022-08-27T02:04:49.546Z,99.99
2022-08-27T02:05:49.551Z,99.99
2022-08-27T02:06:49.529Z,99.99
2022-08-27T02:07:49.534Z,99.99
2022-08-27T02:08:49.505Z,99.99
2022-08-27T02:09:49.492Z,99.73
2022-08-27T02:10:49.482Z,99.33
2022-08-27T02:11:49.470Z,99.53
2022-08-27T02:12:49.476Z,99.23
2022-08-27T02:13:49.444Z,99.43
2022-08-27T02:14:49.909Z,99.13
2022-08-27T02:15:49.461Z,99.23
2022-08-27T02:16:52.435Z,99.43
2022-08-27T02:17:49.413Z,99.43
2022-08-27T02:18:49.514Z,99.43
2022-08-27T02:19:49.380Z,99.53
2022-08-27T02:20:49.953Z,99.43
2022-08-27T02:21:49.360Z,99.43
2022-08-27T02:22:49.348Z,99.33
2022-08-27T02:23:49.341Z,99.13
2022-08-27T02:24:49.350Z,99.23
2022-08-27T02:25:49.312Z,99.23
2022-08-27T02:26:49.302Z,99.13
2022-08-27T02:27:49.293Z,99.53
2022-08-27T02:28:49.329Z,99.13
2022-08-27T02:29:49.879Z,99.43
2022-08-27T02:30:49.255Z,99.13
2022-08-27T02:31:49.353Z,99.33
2022-08-27T02:32:49.238Z,99.13
2022-08-27T02:33:49.225Z,99.13
2022-08-27T02:34:49.229Z,99.13
2022-08-27T02:35:49.919Z,99.13
2022-08-27T02:36:49.190Z,99.33
2022-08-27T02:37:49.179Z,99.13
2022-08-27T02:38:49.198Z,99.63
2022-08-27T02:39:49.162Z,99.58
2022-08-27T02:40:49.159Z,99.18
2022-08-27T02:41:49.135Z,99.23
2022-08-27T02:42:49.123Z,99.23
2022-08-27T02:43:49.139Z,99.23
2022-08-27T02:44:49.101Z,99.13
2022-08-27T02:45:49.094Z,99.43
2022-08-27T02:46:51.921Z,99.08
2022-08-27T02:47:49.088Z,99.18
2022-08-27T02:48:49.059Z,99.03
2022-08-27T02:49:49.069Z,99.49
2022-08-27T02:50:49.071Z,99.53
2022-08-27T02:51:49.043Z,99.53
2022-08-27T02:52:49.016Z,99.49
2022-08-27T02:53:49.004Z,99.43
2022-08-27T02:54:56.198Z,99.43
2022-08-27T02:55:49.048Z,99.53
2022-08-27T02:56:49.004Z,99.49
2022-08-27T02:57:48.965Z,99.43
2022-08-27T02:58:49.075Z,99.38
2022-08-27T02:59:48.959Z,99.49
2022-08-27T03:00:48.982Z,99.43
2022-08-27T03:01:49.052Z,99.38
2022-08-27T03:02:48.944Z,99.29
2022-08-27T03:03:48.891Z,99.38
2022-08-27T03:04:48.901Z,99.38
2022-08-27T03:05:48.870Z,99.08
2022-08-27T03:06:48.860Z,99.18
2022-08-27T03:07:48.846Z,99.08
2022-08-27T03:08:52.387Z,99.38
2022-08-27T03:09:49.001Z,99.18
2022-08-27T03:10:48.814Z,99.18
2022-08-27T03:11:48.820Z,99.08
2022-08-27T03:12:48.789Z,99.49
2022-08-27T03:13:48.910Z,98.88
2022-08-27T03:14:48.764Z,98.88
2022-08-27T03:15:50.698Z,99.08
2022-08-27T03:16:48.747Z,99.38
2022-08-27T03:17:48.742Z,99.18
2022-08-27T03:18:48.726Z,99.33
2022-08-27T03:19:48.714Z,99.38
2022-08-27T03:20:48.736Z,99.38
2022-08-27T03:21:54.287Z,99.18
2022-08-27T03:22:49.678Z,99.29
2022-08-27T03:23:48.685Z,99.49
2022-08-27T03:24:48.659Z,99.49
2022-08-27T03:25:48.673Z,99.49
2022-08-27T03:26:52.697Z,99.49
2022-08-27T03:27:49.621Z,99.38
2022-08-27T03:28:48.615Z,99.29
2022-08-27T03:29:48.602Z,99.49
2022-08-27T03:30:48.680Z,99.29
2022-08-27T03:31:48.590Z,99.38
2022-08-27T03:32:48.571Z,99.38
2022-08-27T03:33:48.557Z,99.38
2022-08-27T03:34:48.551Z,99.38
2022-08-27T03:35:51.660Z,99.38
2022-08-27T03:36:48.534Z,99.38
2022-08-27T03:37:48.532Z,99.08
2022-08-27T03:38:48.503Z,99.08
2022-08-27T03:39:48.492Z,99.08
2022-08-27T03:40:48.507Z,99.18
2022-08-27T03:41:54.533Z,99.18
2022-08-27T03:42:49.459Z,99.58
2022-08-27T03:43:48.456Z,99.68
2022-08-27T03:44:48.437Z,99.29
2022-08-27T03:46:01.598Z,99.58
2022-08-27T03:46:49.457Z,99.99
2022-08-27T03:47:48.424Z,99.99
2022-08-27T03:48:48.393Z,99.99
2022-08-27T03:49:48.379Z,99.99
2022-08-27T03:50:48.389Z,99.99
2022-08-27T03:51:48.353Z,99.99
2022-08-27T03:52:48.353Z,99.99
2022-08-27T03:53:48.332Z,99.99
2022-08-27T03:54:48.340Z,99.99
2022-08-27T03:55:48.335Z,99.99
2022-08-27T03:56:48.306Z,99.99
2022-08-27T03:57:48.294Z,99.99
2022-08-27T03:58:48.285Z,99.99
2022-08-27T03:59:48.271Z,99.99
2022-08-27T04:00:48.292Z,99.99
2022-08-27T04:01:48.275Z,99.99
2022-08-27T04:02:48.529Z,99.99
2022-08-27T04:03:48.223Z,99.99
2022-08-27T04:04:48.332Z,99.99
2022-08-27T04:05:48.221Z,99.99
2022-08-27T04:06:48.194Z,99.99
2022-08-27T04:07:48.182Z,99.99
2022-08-27T04:08:48.177Z,99.99
2022-08-27T04:09:48.161Z,99.99
2022-08-27T04:10:48.197Z,99.99
2022-08-27T04:11:48.134Z,99.99
2022-08-27T04:12:48.130Z,99.99
2022-08-27T04:13:48.110Z,99.99
2022-08-27T04:14:48.105Z,99.99
2022-08-27T04:15:48.151Z,99.99
2022-08-27T04:16:48.096Z,99.99
2022-08-27T04:17:48.072Z,99.99
2022-08-27T04:18:48.066Z,99.99
2022-08-27T04:19:50.396Z,99.99
2022-08-27T04:20:48.040Z,99.99
2022-08-27T04:21:48.034Z,99.99
2022-08-27T04:22:48.021Z,99.99
2022-08-27T04:23:48.017Z,99.99
2022-08-27T04:24:47.996Z,99.99
2022-08-27T04:25:47.980Z,99.99
2022-08-27T04:26:47.974Z,99.99
2022-08-27T04:27:47.957Z,99.99
2022-08-27T04:28:49.173Z,99.99
2022-08-27T04:29:47.936Z,99.99
2022-08-27T04:30:48.023Z,99.99
2022-08-27T04:31:47.933Z,99.99
2022-08-27T04:32:47.999Z,99.99
2022-08-27T04:33:50.805Z,99.99
2022-08-27T04:34:47.884Z,99.99
2022-08-27T04:35:47.869Z,99.99
2022-08-27T04:36:49.989Z,99.99
2022-08-27T04:37:47.870Z,99.99
2022-08-27T04:38:47.853Z,99.99
2022-08-27T04:39:50.320Z,99.99
2022-08-27T04:40:47.834Z,99.99
2022-08-27T04:41:47.805Z,99.99
2022-08-27T04:42:47.815Z,99.99
2022-08-27T04:43:47.824Z,99.99
2022-08-27T04:44:47.774Z,99.99
2022-08-27T04:45:47.777Z,99.99
2022-08-27T04:46:49.254Z,99.99
2022-08-27T04:47:47.746Z,99.99
2022-08-27T04:48:47.727Z,99.99
2022-08-27T04:49:47.815Z,99.99
2022-08-27T04:50:47.718Z,99.99
2022-08-27T04:51:47.733Z,99.99
2022-08-27T04:52:47.683Z,99.99
2022-08-27T04:53:47.829Z,99.99
2022-08-27T04:54:47.679Z,99.99
2022-08-27T04:55:47.695Z,99.99
2022-08-27T04:56:47.638Z,99.99
2022-08-27T04:57:47.631Z,99.99
2022-08-27T04:58:47.616Z,99.99
2022-08-27T04:59:47.625Z,99.99
2022-08-27T05:00:47.594Z,99.99
2022-08-27T05:01:47.659Z,99.99
2022-08-27T05:02:47.571Z,99.99
2022-08-27T05:03:47.568Z,99.99
2022-08-27T05:04:47.611Z,99.99
2022-08-27T05:05:47.563Z,99.99
2022-08-27T05:06:47.542Z,99.99
2022-08-27T05:07:47.522Z,99.99
2022-08-27T05:08:47.622Z,99.99
2022-08-27T05:09:47.495Z,99.99
2022-08-27T05:10:47.483Z,99.99
2022-08-27T05:11:47.500Z,99.99
2022-08-27T05:12:49.289Z,99.99
2022-08-27T05:13:47.475Z,99.99
2022-08-27T05:14:47.451Z,99.99
2022-08-27T05:15:47.505Z,99.99
2022-08-27T05:16:47.416Z,99.99
2022-08-27T05:17:47.426Z,99.99
2022-08-27T05:18:48.643Z,99.99
2022-08-27T05:19:47.382Z,99.99
2022-08-27T05:20:47.372Z,99.99
2022-08-27T05:21:47.356Z,99.99
2022-08-27T05:22:47.372Z,99.99
2022-08-27T05:23:47.339Z,99.99
2022-08-27T05:24:50.341Z,99.88
2022-08-27T05:25:47.335Z,99.79
2022-08-27T05:26:47.303Z,99.49
2022-08-27T05:27:47.325Z,99.68
2022-08-27T05:28:47.286Z,99.38
2022-08-27T05:29:47.325Z,99.29
2022-08-27T05:30:49.274Z,99.53
2022-08-27T05:31:48.420Z,99.18
2022-08-27T05:32:47.254Z,99.49
2022-08-27T05:33:47.223Z,99.38
2022-08-27T05:34:47.224Z,99.49
2022-08-27T05:35:47.207Z,99.49
2022-08-27T05:36:48.707Z,99.18
2022-08-27T05:37:47.200Z,99.58
2022-08-27T05:38:47.172Z,99.49
2022-08-27T05:39:47.155Z,99.58
2022-08-27T05:40:47.149Z,99.18
2022-08-27T05:41:47.137Z,99.08
2022-08-27T05:42:50.166Z,99.18
2022-08-27T05:43:50.247Z,99.44
2022-08-27T05:44:47.378Z,98.88
2022-08-27T05:45:47.099Z,98.74
2022-08-27T05:46:47.089Z,98.44
2022-08-27T05:47:47.092Z,98.54
2022-08-27T05:48:47.061Z,98.64
2022-08-27T05:49:47.048Z,98.44
2022-08-27T05:50:47.038Z,97.94
2022-08-27T05:51:47.042Z,98.03
2022-08-27T05:52:47.016Z,98.28
2022-08-27T05:53:47.006Z,98.44
2022-08-27T05:54:46.996Z,97.84
2022-08-27T05:55:46.984Z,98.44
2022-08-27T05:56:46.975Z,98.24
2022-08-27T05:57:46.974Z,98.24
2022-08-27T05:58:46.952Z,98.33
2022-08-27T05:59:47.045Z,98.54
2022-08-27T06:00:46.934Z,97.94
2022-08-27T06:01:46.919Z,97.34
2022-08-27T06:02:46.976Z,97.74
2022-08-27T06:03:46.896Z,97.94
2022-08-27T06:04:46.950Z,97.64
2022-08-27T06:05:46.871Z,97.64
2022-08-27T06:06:46.864Z,97.84
2022-08-27T06:07:46.874Z,97.64
2022-08-27T06:08:46.844Z,97.53
2022-08-27T06:09:46.837Z,96.84
2022-08-27T06:10:46.821Z,97.24
2022-08-27T06:11:46.807Z,97.24
2022-08-27T06:12:46.817Z,97.24
2022-08-27T06:13:46.785Z,97.14
2022-08-27T06:14:46.785Z,97.09
2022-08-27T06:15:46.828Z,97.19
2022-08-27T06:16:46.775Z,97.09
2022-08-27T06:17:46.766Z,97.09
2022-08-27T06:18:46.759Z,97.49
2022-08-27T06:19:46.727Z,96.49
2022-08-27T06:20:46.714Z,96.89
2022-08-27T06:21:46.701Z,96.59
2022-08-27T06:22:49.784Z,96.59
2022-08-27T06:23:46.675Z,96.09
2022-08-27T06:24:46.671Z,96.09
2022-08-27T06:25:46.656Z,96.19
2022-08-27T06:26:46.712Z,96.44
2022-08-27T06:27:49.852Z,96.14
2022-08-27T06:28:46.627Z,96.29
2022-08-27T06:29:46.617Z,96.14
2022-08-27T06:30:46.637Z,96.19
2022-08-27T06:31:46.990Z,95.75
2022-08-27T06:32:46.579Z,95.84
2022-08-27T06:33:46.572Z,95.64
2022-08-27T06:34:46.563Z,96.04
2022-08-27T06:35:46.630Z,95.64
2022-08-27T06:36:46.545Z,95.84
2022-08-27T06:37:46.537Z,95.64
2022-08-27T06:38:46.527Z,95.84
2022-08-27T06:39:46.504Z,95.95
2022-08-27T06:40:46.566Z,95.45
2022-08-27T06:41:46.485Z,95.45
2022-08-27T06:42:46.490Z,95.25
2022-08-27T06:43:46.460Z,95.45
2022-08-27T06:44:46.451Z,95.45
2022-08-27T06:45:47.441Z,95.54
2022-08-27T06:46:46.438Z,95.84
2022-08-27T06:47:46.423Z,95.95
2022-08-27T06:48:46.802Z,95.75
2022-08-27T06:49:46.619Z,95.45
2022-08-27T06:50:46.392Z,95.50
2022-08-27T06:51:46.414Z,95.04
2022-08-27T06:52:46.612Z,95.54
2022-08-27T06:53:46.351Z,95.15
2022-08-27T06:54:46.369Z,95.10
2022-08-27T06:55:46.360Z,95.00
2022-08-27T06:56:46.327Z,94.80
2022-08-27T06:57:46.308Z,95.40
2022-08-27T06:58:46.302Z,94.90
2022-08-27T06:59:46.286Z,94.95
2022-08-27T07:00:48.979Z,95.84
2022-08-27T07:01:46.372Z,95.64
2022-08-27T07:02:46.346Z,95.79
2022-08-27T07:03:46.243Z,95.75
2022-08-27T07:04:46.241Z,95.64
2022-08-27T07:05:46.371Z,95.84
2022-08-27T07:06:46.212Z,95.60
2022-08-27T07:07:56.492Z,95.80
2022-08-27T07:08:53.323Z,95.34
2022-08-27T07:09:49.960Z,95.45
2022-08-27T07:10:46.186Z,95.54
2022-08-27T07:11:46.992Z,95.15
2022-08-27T07:12:46.162Z,95.25
2022-08-27T07:13:46.158Z,95.04
2022-08-27T07:14:46.128Z,94.95
2022-08-27T07:15:46.180Z,95.15
2022-08-27T07:16:46.101Z,94.35
2022-08-27T07:17:46.092Z,94.40
2022-08-27T07:18:46.098Z,94.35
2022-08-27T07:19:46.072Z,94.50
2022-08-27T07:20:46.057Z,94.40
2022-08-27T07:21:46.049Z,94.10
2022-08-27T07:22:46.118Z,94.20
2022-08-27T07:23:46.049Z,93.90
2022-08-27T07:24:46.043Z,93.36
2022-08-27T07:25:46.034Z,93.46
2022-08-27T07:26:45.995Z,93.16
2022-08-27T07:27:47.485Z,93.36
2022-08-27T07:28:46.394Z,92.96
2022-08-27T07:29:45.956Z,92.86
2022-08-27T07:30:46.059Z,93.16
2022-08-27T07:31:45.968Z,93.26
2022-08-27T07:32:45.930Z,92.86
2022-08-27T07:33:50.603Z,92.96
2022-08-27T07:34:46.906Z,93.05
2022-08-27T07:35:45.940Z,93.16
2022-08-27T07:36:45.882Z,92.46
2022-08-27T07:37:45.873Z,92.46
2022-08-27T07:38:46.215Z,92.06
2022-08-27T07:39:46.851Z,91.86
2022-08-27T07:40:45.858Z,92.21
2022-08-27T07:41:45.840Z,92.02
2022-08-27T07:42:45.815Z,91.72
2022-08-27T07:43:45.920Z,91.61
2022-08-27T07:44:45.816Z,91.72
2022-08-27T07:45:45.852Z,91.91
2022-08-27T07:46:48.197Z,91.57
2022-08-27T07:47:45.760Z,91.61
2022-08-27T07:48:45.767Z,90.81
2022-08-27T07:49:45.744Z,91.52
2022-08-27T07:50:45.730Z,91.82
2022-08-27T07:51:45.724Z,92.32
2022-08-27T07:52:45.705Z,91.72
2022-08-27T07:53:45.723Z,91.61
2022-08-27T07:54:45.779Z,91.82
2022-08-27T07:55:45.669Z,91.82
2022-08-27T07:56:55.314Z,91.61
2022-08-27T07:57:46.675Z,92.32
2022-08-27T07:58:46.821Z,91.72
2022-08-27T07:59:45.631Z,91.72
2022-08-27T08:00:45.618Z,91.42
2022-08-27T08:01:45.672Z,91.42
2022-08-27T08:02:45.761Z,91.02
2022-08-27T08:03:45.592Z,91.31
2022-08-27T08:04:45.570Z,91.42
2022-08-27T08:05:45.564Z,91.31
2022-08-27T08:06:55.205Z,91.52
2022-08-27T08:07:45.541Z,91.42
2022-08-27T08:08:56.546Z,91.37
2022-08-27T08:09:45.760Z,91.57
2022-08-27T08:10:45.507Z,91.27
2022-08-27T08:11:45.502Z,91.77
2022-08-27T08:12:45.502Z,91.47
2022-08-27T08:13:46.463Z,91.61
2022-08-27T08:14:45.458Z,91.31
2022-08-27T08:15:46.469Z,91.22
2022-08-27T08:16:45.524Z,92.02
2022-08-27T08:17:48.348Z,91.31
2022-08-27T08:18:45.419Z,91.42
2022-08-27T08:20:02.517Z,91.61
2022-08-27T08:20:58.061Z,91.82
2022-08-27T08:21:46.400Z,92.11
2022-08-27T08:22:45.380Z,91.36
2022-08-27T08:23:45.365Z,92.21
2022-08-27T08:24:45.351Z,91.31
2022-08-27T08:25:45.340Z,91.72
2022-08-27T08:26:45.341Z,91.31
2022-08-27T08:27:45.319Z,91.02
2022-08-27T08:28:45.303Z,91.52
2022-08-27T08:29:45.300Z,91.42
2022-08-27T08:30:45.364Z,91.61
2022-08-27T08:31:45.287Z,91.22
2022-08-27T08:32:46.268Z,91.61
2022-08-27T08:33:45.248Z,91.52
2022-08-27T08:34:45.236Z,90.72
2022-08-27T08:35:45.225Z,90.81
2022-08-27T08:36:46.278Z,91.11
2022-08-27T08:37:46.198Z,90.47
2022-08-27T08:38:45.190Z,90.37
2022-08-27T08:39:45.180Z,90.08
2022-08-27T08:40:45.168Z,89.87
2022-08-27T08:41:45.201Z,89.98
2022-08-27T08:42:50.541Z,89.98
2022-08-27T08:43:46.137Z,89.82
2022-08-27T08:44:45.120Z,90.42
2022-08-27T08:45:45.172Z,90.52
2022-08-27T08:46:45.122Z,90.62
2022-08-27T08:47:45.310Z,89.92
2022-08-27T08:48:45.079Z,89.52
2022-08-27T08:49:45.068Z,89.72
2022-08-27T08:50:45.053Z,89.68
2022-08-27T08:51:45.114Z,90.17
2022-08-27T08:52:45.056Z,89.38
2022-08-27T08:53:45.017Z,88.84
2022-08-27T08:54:45.008Z,88.84
2022-08-27T08:55:45.001Z,88.24
2022-08-27T08:56:44.993Z,88.24
2022-08-27T08:57:44.989Z,87.50
2022-08-27T08:58:45.530Z,87.46
2022-08-27T08:59:44.953Z,86.96
2022-08-27T09:00:44.947Z,86.66
2022-08-27T09:01:44.980Z,86.86
2022-08-27T09:02:45.099Z,87.16
2022-08-27T09:03:44.926Z,86.76
2022-08-27T09:04:44.934Z,87.05
2022-08-27T09:05:44.887Z,87.20
2022-08-27T09:06:44.881Z,87.70
2022-08-27T09:07:44.884Z,87.80
2022-08-27T09:08:45.194Z,87.76
2022-08-27T09:09:44.846Z,87.80
2022-08-27T09:10:44.850Z,87.76
2022-08-27T09:11:44.851Z,87.46
2022-08-27T09:12:44.835Z,87.16
2022-08-27T09:13:44.885Z,87.76
2022-08-27T09:14:46.122Z,87.65
2022-08-27T09:15:44.787Z,87.51
2022-08-27T09:16:44.835Z,87.62
2022-08-27T09:17:44.783Z,87.02
2022-08-27T09:18:44.755Z,86.68
2022-08-27T09:19:45.499Z,86.08
2022-08-27T09:20:44.726Z,86.61
2022-08-27T09:21:45.078Z,86.02
2022-08-27T09:22:44.700Z,86.72
2022-08-27T09:23:44.693Z,86.52
2022-08-27T09:24:44.678Z,86.91
2022-08-27T09:25:44.676Z,87.02
2022-08-27T09:26:44.674Z,87.02
2022-08-27T09:27:44.661Z,86.72
2022-08-27T09:28:44.682Z,86.72
2022-08-27T09:29:44.636Z,86.32
2022-08-27T09:30:44.704Z,86.08
2022-08-27T09:31:44.845Z,85.58
2022-08-27T09:32:44.606Z,85.14
2022-08-27T09:33:56.323Z,85.10
2022-08-27T09:34:46.548Z,83.87
2022-08-27T09:35:44.637Z,83.47
2022-08-27T09:36:44.642Z,83.37
2022-08-27T09:37:44.558Z,83.37
2022-08-27T09:38:44.530Z,83.21
2022-08-27T09:39:45.516Z,83.65
2022-08-27T09:40:44.568Z,84.05
2022-08-27T09:41:44.577Z,84.84
2022-08-27T09:42:44.500Z,84.05
2022-08-27T09:43:44.654Z,85.00
2022-08-27T09:44:44.725Z,83.41
2022-08-27T09:45:45.123Z,83.31
2022-08-27T09:46:44.443Z,83.41
2022-08-27T09:47:44.429Z,83.81
2022-08-27T09:48:44.427Z,84.80
2022-08-27T09:49:44.411Z,84.80
2022-08-27T09:50:44.430Z,84.25
2022-08-27T09:51:44.490Z,84.39
2022-08-27T09:52:44.374Z,85.18
2022-08-27T09:53:44.363Z,85.62
2022-08-27T09:54:44.356Z,86.52
2022-08-27T09:55:47.292Z,87.02
2022-08-27T09:56:44.333Z,87.02
2022-08-27T09:57:44.324Z,85.72
2022-08-27T09:58:44.307Z,86.56
2022-08-27T09:59:44.301Z,86.86
2022-08-27T10:00:51.045Z,86.56
2022-08-27T10:01:44.283Z,86.96
2022-08-27T10:02:44.272Z,86.96
2022-08-27T10:03:44.317Z,87.05
2022-08-27T10:04:50.300Z,86.96
2022-08-27T10:05:45.237Z,85.92
2022-08-27T10:06:44.269Z,86.52
2022-08-27T10:07:44.211Z,86.47
2022-08-27T10:08:44.320Z,84.99
2022-08-27T10:09:44.211Z,85.22
2022-08-27T10:10:44.211Z,86.02
2022-08-27T10:11:44.169Z,86.32
2022-08-27T10:12:44.158Z,85.72
2022-08-27T10:13:44.169Z,85.78
2022-08-27T10:14:44.155Z,85.58
2022-08-27T10:15:47.753Z,85.08
2022-08-27T10:16:45.191Z,85.92
2022-08-27T10:17:44.106Z,86.52
2022-08-27T10:18:44.108Z,86.42
2022-08-27T10:19:44.082Z,86.42
2022-08-27T10:20:44.085Z,87.05
2022-08-27T10:21:44.573Z,87.64
2022-08-27T10:22:44.065Z,88.24
2022-08-27T10:23:44.037Z,88.24
2022-08-27T10:24:44.026Z,88.40
2022-08-27T10:25:45.017Z,88.29
2022-08-27T10:26:44.006Z,88.20
2022-08-27T10:27:44.141Z,87.76
2022-08-27T10:28:44.234Z,87.76
2022-08-27T10:29:43.973Z,86.96
2022-08-27T10:30:43.960Z,87.46
2022-08-27T10:31:46.007Z,87.35
2022-08-27T10:32:43.942Z,87.40
2022-08-27T10:33:43.931Z,87.90
2022-08-27T10:34:43.918Z,87.99
2022-08-27T10:35:48.104Z,88.20
2022-08-27T10:36:44.895Z,88.49
2022-08-27T10:37:43.889Z,88.25
2022-08-27T10:38:44.997Z,87.76
2022-08-27T10:39:43.864Z,87.46
2022-08-27T10:40:45.516Z,87.65
2022-08-27T10:41:44.000Z,87.32
2022-08-27T10:42:44.595Z,87.02
2022-08-27T10:43:43.831Z,86.28
2022-08-27T10:44:43.822Z,85.58
2022-08-27T10:45:43.869Z,85.24
2022-08-27T10:46:50.561Z,85.14
2022-08-27T10:47:43.831Z,85.10
2022-08-27T10:48:43.764Z,84.60
2022-08-27T10:49:43.757Z,84.01
2022-08-27T10:50:43.764Z,84.20
2022-08-27T10:51:43.730Z,84.11
2022-08-27T10:52:43.723Z,84.20
2022-08-27T10:53:43.789Z,84.20
2022-08-27T10:54:43.703Z,84.11
2022-08-27T10:55:44.609Z,84.60
2022-08-27T10:56:43.682Z,85.10
2022-08-27T10:57:55.089Z,84.05
2022-08-27T10:58:44.656Z,84.05
2022-08-27T10:59:47.190Z,84.55
2022-08-27T11:00:43.682Z,84.45
2022-08-27T11:01:43.801Z,84.25
2022-08-27T11:02:43.614Z,84.70
2022-08-27T11:03:43.621Z,84.11
2022-08-27T11:04:43.586Z,83.71
2022-08-27T11:05:43.586Z,83.51
2022-08-27T11:06:43.570Z,83.17
2022-08-27T11:07:43.569Z,83.21
2022-08-27T11:08:43.656Z,83.41
2022-08-27T11:09:43.534Z,83.41
2022-08-27T11:10:43.571Z,82.97
2022-08-27T11:12:13.802Z,82.81
2022-08-27T11:12:44.516Z,82.57
2022-08-27T11:13:43.513Z,82.78
2022-08-27T11:14:43.714Z,82.38
2022-08-27T11:15:43.498Z,83.07
2022-08-27T11:16:45.645Z,83.07
2022-08-27T11:17:43.495Z,83.13
2022-08-27T11:18:43.518Z,82.34
2022-08-27T11:19:43.633Z,82.43
2022-08-27T11:20:43.417Z,82.34
2022-08-27T11:21:43.404Z,81.98
2022-08-27T11:22:43.399Z,81.45
2022-08-27T11:23:43.385Z,81.94
2022-08-27T11:24:43.405Z,82.04
2022-08-27T11:25:43.451Z,81.54
2022-08-27T11:26:43.350Z,82.43
2022-08-27T11:27:43.346Z,81.30
2022-08-27T11:28:43.330Z,81.40
2022-08-27T11:29:43.337Z,81.64
2022-08-27T11:30:44.093Z,81.78
2022-08-27T11:31:43.755Z,81.84
2022-08-27T11:32:43.285Z,82.00
2022-08-27T11:33:46.137Z,81.86
2022-08-27T11:34:43.263Z,80.93
2022-08-27T11:35:43.255Z,80.10
2022-08-27T11:37:04.237Z,78.97
2022-08-27T11:37:43.237Z,77.94
2022-08-27T11:38:43.234Z,77.05
2022-08-27T11:39:43.231Z,76.62
2022-08-27T11:40:43.326Z,75.43
2022-08-27T11:41:44.735Z,75.49
2022-08-27T11:42:43.627Z,74.17
2022-08-27T11:43:43.170Z,72.81
2022-08-27T11:44:44.763Z,71.26
2022-08-27T11:45:47.856Z,70.14
2022-08-27T11:46:44.167Z,69.71
2022-08-27T11:47:43.122Z,68.50
2022-08-27T11:48:43.349Z,67.58
2022-08-27T11:49:43.127Z,67.08
2022-08-27T11:50:43.092Z,65.78
2022-08-27T11:51:43.076Z,64.76
2022-08-27T11:52:43.076Z,65.55
2022-08-27T11:53:52.260Z,64.76
2022-08-27T11:54:44.134Z,64.96
2022-08-27T11:55:43.117Z,65.25
2022-08-27T11:56:43.057Z,64.79
2022-08-27T11:57:43.547Z,64.89
2022-08-27T11:58:53.053Z,64.92
2022-08-27T11:59:44.020Z,66.20
2022-08-27T12:00:43.032Z,65.52
2022-08-27T12:01:42.987Z,64.69
2022-08-27T12:02:43.009Z,64.27
2022-08-27T12:03:44.709Z,64.20
2022-08-27T12:04:43.031Z,64.89
2022-08-27T12:05:42.996Z,65.61
2022-08-27T12:06:42.941Z,64.73
2022-08-27T12:07:42.999Z,64.86
2022-08-27T12:08:43.549Z,65.58
2022-08-27T12:09:42.909Z,65.25
2022-08-27T12:10:43.562Z,65.02
2022-08-27T12:11:42.915Z,65.38
2022-08-27T12:12:43.723Z,65.28
2022-08-27T12:13:42.931Z,65.15
2022-08-27T12:14:43.620Z,65.74
2022-08-27T12:15:42.925Z,65.74
2022-08-27T12:16:43.814Z,65.67
2022-08-27T12:17:42.857Z,66.00
2022-08-27T12:18:42.900Z,66.63
2022-08-27T12:19:42.797Z,67.41
2022-08-27T12:20:44.148Z,67.91
2022-08-27T12:21:43.632Z,68.13
2022-08-27T12:22:43.563Z,68.73
2022-08-27T12:23:42.767Z,67.94
2022-08-27T12:24:42.877Z,68.37
2022-08-27T12:25:43.163Z,68.57
2022-08-27T12:26:42.827Z,68.79
2022-08-27T12:27:42.896Z,69.19
2022-08-27T12:28:42.784Z,70.01
2022-08-27T12:29:44.001Z,71.10
2022-08-27T12:31:10.184Z,71.62
2022-08-27T12:31:59.632Z,71.96
2022-08-27T12:33:06.582Z,72.39
2022-08-27T12:33:48.084Z,72.78
2022-08-27T12:34:49.677Z,73.41
2022-08-27T12:35:45.737Z,73.71
2022-08-27T12:36:42.711Z,74.01
2022-08-27T12:37:46.181Z,73.87
2022-08-27T12:38:50.715Z,73.77
2022-08-27T12:40:54.243Z,72.09
2022-08-27T12:41:53.136Z,72.16
2022-08-27T12:42:53.128Z,72.42
2022-08-27T12:43:53.119Z,72.02
2022-08-27T12:44:53.129Z,72.45
2022-08-27T12:45:53.102Z,72.55
2022-08-27T12:46:53.155Z,72.49
2022-08-27T12:47:54.050Z,72.49
2022-08-27T12:48:53.067Z,72.69
2022-08-27T12:49:55.794Z,72.33
2022-08-27T12:50:53.051Z,71.80
2022-08-27T12:51:53.061Z,72.19
2022-08-27T12:52:53.029Z,72.78
2022-08-27T12:53:54.001Z,73.38
2022-08-27T12:54:53.035Z,73.11